sensor_id;sensor_type;location;lat;lon;timestamp;temperature;humidity
15288;DHT22;7745;48.708;9.026;2023-04-08T00:02:02;7.20;99.90
15288;DHT22;7745;48.708;9.026;2023-04-08T00:04:30;7.20;99.90
15288;DHT22;7745;48.708;9.026;2023-04-08T00:06:57;7.20;99.90
15288;DHT22;7745;48.708;9.026;2023-04-08T00:09:24;7.40;99.90
15288;DHT22;7745;48.708;9.026;2023-04-08T00:11:51;7.20;99.90
15288;DHT22;7745;48.708;9.026;2023-04-08T00:14:18;7.20;99.90
15288;DHT22;7745;48.708;9.026;2023-04-08T00:16:44;7.20;99.90
15288;DHT22;7745;48.708;9.026;2023-04-08T00:19:11;7.20;99.90
15288;DHT22;7745;48.708;9.026;2023-04-08T00:21:39;7.20;99.90
15288;DHT22;7745;48.708;9.026;2023-04-08T00:24:06;7.20;99.90
15288;DHT22;7745;48.708;9.026;2023-04-08T00:26:33;7.20;99.90
15288;DHT22;7745;48.708;9.026;2023-04-08T00:29:00;7.30;99.90
15288;DHT22;7745;48.708;9.026;2023-04-08T00:31:27;7.30;99.90
15288;DHT22;7745;48.708;9.026;2023-04-08T00:33:53;7.30;99.90
15288;DHT22;7745;48.708;9.026;2023-04-08T00:36:20;7.30;99.90
15288;DHT22;7745;48.708;9.026;2023-04-08T00:38:49;7.30;99.90
15288;DHT22;7745;48.708;9.026;2023-04-08T00:41:16;7.30;99.90
15288;DHT22;7745;48.708;9.026;2023-04-08T00:43:43;7.30;99.90
15288;DHT22;7745;48.708;9.026;2023-04-08T00:46:10;7.30;99.90
15288;DHT22;7745;48.708;9.026;2023-04-08T00:48:36;7.30;99.90
15288;DHT22;7745;48.708;9.026;2023-04-08T00:51:03;7.30;99.90
15288;DHT22;7745;48.708;9.026;2023-04-08T00:53:30;7.30;99.90
15288;DHT22;7745;48.708;9.026;2023-04-08T00:55:59;7.50;99.90
15288;DHT22;7745;48.708;9.026;2023-04-08T00:58:26;7.30;99.90
15288;DHT22;7745;48.708;9.026;2023-04-08T01:00:58;7.30;99.90
15288;DHT22;7745;48.708;9.026;2023-04-08T01:03:36;7.30;99.90
15288;DHT22;7745;48.708;9.026;2023-04-08T01:06:09;7.30;99.90
15288;DHT22;7745;48.708;9.026;2023-04-08T01:08:39;7.30;99.90
15288;DHT22;7745;48.708;9.026;2023-04-08T01:11:10;7.30;99.90
15288;DHT22;7745;48.708;9.026;2023-04-08T01:13:39;7.30;99.90
15288;DHT22;7745;48.708;9.026;2023-04-08T01:16:09;7.30;99.90
15288;DHT22;7745;48.708;9.026;2023-04-08T01:18:39;7.30;99.90
15288;DHT22;7745;48.708;9.026;2023-04-08T01:21:07;7.30;99.90
15288;DHT22;7745;48.708;9.026;2023-04-08T01:23:39;7.30;99.90
15288;DHT22;7745;48.708;9.026;2023-04-08T01:26:12;7.30;99.90
15288;DHT22;7745;48.708;9.026;2023-04-08T01:28:48;7.30;99.90
15288;DHT22;7745;48.708;9.026;2023-04-08T01:31:17;7.30;99.90
15288;DHT22;7745;48.708;9.026;2023-04-08T01:33:45;7.20;99.90
15288;DHT22;7745;48.708;9.026;2023-04-08T01:36:13;7.20;99.90
15288;DHT22;7745;48.708;9.026;2023-04-08T01:38:41;7.20;99.90
15288;DHT22;7745;48.708;9.026;2023-04-08T01:41:10;7.30;99.90
15288;DHT22;7745;48.708;9.026;2023-04-08T01:43:38;7.20;99.90
15288;DHT22;7745;48.708;9.026;2023-04-08T01:46:06;7.20;99.90
15288;DHT22;7745;48.708;9.026;2023-04-08T01:48:34;7.20;99.90
15288;DHT22;7745;48.708;9.026;2023-04-08T01:51:02;7.20;99.90
15288;DHT22;7745;48.708;9.026;2023-04-08T01:53:29;7.10;99.90
15288;DHT22;7745;48.708;9.026;2023-04-08T01:56:02;7.20;99.90
15288;DHT22;7745;48.708;9.026;2023-04-08T01:58:36;7.20;99.90
15288;DHT22;7745;48.708;9.026;2023-04-08T02:01:04;7.10;99.90
15288;DHT22;7745;48.708;9.026;2023-04-08T02:03:32;7.20;99.90
15288;DHT22;7745;48.708;9.026;2023-04-08T02:05:59;7.10;99.90
15288;DHT22;7745;48.708;9.026;2023-04-08T02:08:26;7.20;99.90
15288;DHT22;7745;48.708;9.026;2023-04-08T02:10:53;7.20;99.90
15288;DHT22;7745;48.708;9.026;2023-04-08T02:13:20;7.20;99.90
15288;DHT22;7745;48.708;9.026;2023-04-08T02:15:56;7.20;99.90
15288;DHT22;7745;48.708;9.026;2023-04-08T02:18:25;7.10;99.90
15288;DHT22;7745;48.708;9.026;2023-04-08T02:20:56;7.20;99.90
15288;DHT22;7745;48.708;9.026;2023-04-08T02:23:26;7.10;99.90
15288;DHT22;7745;48.708;9.026;2023-04-08T02:25:55;7.00;99.90
15288;DHT22;7745;48.708;9.026;2023-04-08T02:28:22;7.00;99.90
15288;DHT22;7745;48.708;9.026;2023-04-08T02:30:53;7.00;99.90
15288;DHT22;7745;48.708;9.026;2023-04-08T02:33:22;6.90;99.90
15288;DHT22;7745;48.708;9.026;2023-04-08T02:35:50;6.90;99.90
15288;DHT22;7745;48.708;9.026;2023-04-08T02:38:19;6.90;99.90
15288;DHT22;7745;48.708;9.026;2023-04-08T02:40:48;6.90;99.90
15288;DHT22;7745;48.708;9.026;2023-04-08T02:43:15;6.90;99.90
15288;DHT22;7745;48.708;9.026;2023-04-08T02:45:43;7.00;99.90
15288;DHT22;7745;48.708;9.026;2023-04-08T02:48:12;6.90;99.90
15288;DHT22;7745;48.708;9.026;2023-04-08T02:50:38;6.80;99.90
15288;DHT22;7745;48.708;9.026;2023-04-08T02:53:06;6.80;99.90
15288;DHT22;7745;48.708;9.026;2023-04-08T02:55:32;6.80;99.90
15288;DHT22;7745;48.708;9.026;2023-04-08T02:57:59;6.80;99.90
15288;DHT22;7745;48.708;9.026;2023-04-08T03:00:26;7.10;99.90
15288;DHT22;7745;48.708;9.026;2023-04-08T03:02:53;6.90;99.90
15288;DHT22;7745;48.708;9.026;2023-04-08T03:05:21;6.80;99.90
15288;DHT22;7745;48.708;9.026;2023-04-08T03:07:48;6.90;99.90
15288;DHT22;7745;48.708;9.026;2023-04-08T03:10:15;6.80;99.90
15288;DHT22;7745;48.708;9.026;2023-04-08T03:12:41;6.80;99.90
15288;DHT22;7745;48.708;9.026;2023-04-08T03:15:09;6.70;99.90
15288;DHT22;7745;48.708;9.026;2023-04-08T03:17:35;6.70;99.90
15288;DHT22;7745;48.708;9.026;2023-04-08T03:20:02;6.70;99.90
15288;DHT22;7745;48.708;9.026;2023-04-08T03:22:32;6.70;99.90
15288;DHT22;7745;48.708;9.026;2023-04-08T03:24:59;6.70;99.90
15288;DHT22;7745;48.708;9.026;2023-04-08T03:27:26;6.70;99.90
15288;DHT22;7745;48.708;9.026;2023-04-08T03:29:53;6.70;99.90
15288;DHT22;7745;48.708;9.026;2023-04-08T03:32:19;6.70;99.90
15288;DHT22;7745;48.708;9.026;2023-04-08T03:34:46;6.70;99.90
15288;DHT22;7745;48.708;9.026;2023-04-08T03:37:15;6.70;99.90
15288;DHT22;7745;48.708;9.026;2023-04-08T03:39:43;6.70;99.90
15288;DHT22;7745;48.708;9.026;2023-04-08T03:42:10;6.70;99.90
15288;DHT22;7745;48.708;9.026;2023-04-08T03:44:37;6.70;99.90
15288;DHT22;7745;48.708;9.026;2023-04-08T03:47:04;6.70;99.90
15288;DHT22;7745;48.708;9.026;2023-04-08T03:49:30;6.70;99.90
15288;DHT22;7745;48.708;9.026;2023-04-08T03:51:57;6.70;99.90
15288;DHT22;7745;48.708;9.026;2023-04-08T03:54:24;6.70;99.90
15288;DHT22;7745;48.708;9.026;2023-04-08T03:56:52;6.70;99.90
15288;DHT22;7745;48.708;9.026;2023-04-08T03:59:19;6.70;99.90
15288;DHT22;7745;48.708;9.026;2023-04-08T04:01:45;6.70;99.90
15288;DHT22;7745;48.708;9.026;2023-04-08T04:04:13;6.70;99.90
15288;DHT22;7745;48.708;9.026;2023-04-08T04:06:40;7.00;99.90
15288;DHT22;7745;48.708;9.026;2023-04-08T04:09:07;6.70;99.90
15288;DHT22;7745;48.708;9.026;2023-04-08T04:11:34;6.70;99.90
15288;DHT22;7745;48.708;9.026;2023-04-08T04:14:02;6.70;99.90
15288;DHT22;7745;48.708;9.026;2023-04-08T04:16:29;6.70;99.90
15288;DHT22;7745;48.708;9.026;2023-04-08T04:18:56;6.70;99.90
15288;DHT22;7745;48.708;9.026;2023-04-08T04:21:22;6.70;99.90
15288;DHT22;7745;48.708;9.026;2023-04-08T04:23:49;6.70;99.90
15288;DHT22;7745;48.708;9.026;2023-04-08T04:26:16;6.70;99.90
15288;DHT22;7745;48.708;9.026;2023-04-08T04:28:43;6.70;99.90
15288;DHT22;7745;48.708;9.026;2023-04-08T04:31:18;6.70;99.90
15288;DHT22;7745;48.708;9.026;2023-04-08T04:33:46;6.70;99.90
15288;DHT22;7745;48.708;9.026;2023-04-08T04:36:13;6.70;99.90
15288;DHT22;7745;48.708;9.026;2023-04-08T04:38:39;6.70;99.90
15288;DHT22;7745;48.708;9.026;2023-04-08T04:41:07;6.70;99.90
15288;DHT22;7745;48.708;9.026;2023-04-08T04:43:34;6.70;99.90
15288;DHT22;7745;48.708;9.026;2023-04-08T04:46:01;6.70;99.90
15288;DHT22;7745;48.708;9.026;2023-04-08T04:48:29;6.70;99.90
15288;DHT22;7745;48.708;9.026;2023-04-08T04:50:57;6.70;99.90
15288;DHT22;7745;48.708;9.026;2023-04-08T04:53:24;6.70;99.90
15288;DHT22;7745;48.708;9.026;2023-04-08T04:55:51;6.70;99.90
15288;DHT22;7745;48.708;9.026;2023-04-08T04:58:18;6.70;99.90
15288;DHT22;7745;48.708;9.026;2023-04-08T05:00:46;6.70;99.90
15288;DHT22;7745;48.708;9.026;2023-04-08T05:03:12;6.70;99.90
15288;DHT22;7745;48.708;9.026;2023-04-08T05:05:41;6.70;99.90
15288;DHT22;7745;48.708;9.026;2023-04-08T05:08:07;6.70;99.90
15288;DHT22;7745;48.708;9.026;2023-04-08T05:10:34;6.70;99.90
15288;DHT22;7745;48.708;9.026;2023-04-08T05:13:01;6.70;99.90
15288;DHT22;7745;48.708;9.026;2023-04-08T05:15:28;6.70;99.90
15288;DHT22;7745;48.708;9.026;2023-04-08T05:17:54;6.70;99.90
15288;DHT22;7745;48.708;9.026;2023-04-08T05:20:21;6.70;99.90
15288;DHT22;7745;48.708;9.026;2023-04-08T05:22:49;6.70;99.90
15288;DHT22;7745;48.708;9.026;2023-04-08T05:25:16;6.70;99.90
15288;DHT22;7745;48.708;9.026;2023-04-08T05:27:43;6.70;99.90
15288;DHT22;7745;48.708;9.026;2023-04-08T05:30:11;6.70;99.90
15288;DHT22;7745;48.708;9.026;2023-04-08T05:32:38;6.70;99.90
15288;DHT22;7745;48.708;9.026;2023-04-08T05:35:06;6.70;99.90
15288;DHT22;7745;48.708;9.026;2023-04-08T05:37:34;6.70;99.90
15288;DHT22;7745;48.708;9.026;2023-04-08T05:40:05;6.70;99.90
15288;DHT22;7745;48.708;9.026;2023-04-08T05:42:32;6.70;99.90
15288;DHT22;7745;48.708;9.026;2023-04-08T05:44:59;6.80;99.90
15288;DHT22;7745;48.708;9.026;2023-04-08T05:47:25;6.80;99.90
15288;DHT22;7745;48.708;9.026;2023-04-08T05:49:52;6.80;99.90
15288;DHT22;7745;48.708;9.026;2023-04-08T05:52:19;6.80;99.90
15288;DHT22;7745;48.708;9.026;2023-04-08T05:54:46;6.80;99.90
15288;DHT22;7745;48.708;9.026;2023-04-08T05:57:14;6.90;99.90
15288;DHT22;7745;48.708;9.026;2023-04-08T05:59:42;6.90;99.90
15288;DHT22;7745;48.708;9.026;2023-04-08T06:02:08;7.00;99.90
15288;DHT22;7745;48.708;9.026;2023-04-08T06:04:35;7.10;99.90
15288;DHT22;7745;48.708;9.026;2023-04-08T06:07:02;7.10;99.90
15288;DHT22;7745;48.708;9.026;2023-04-08T06:09:33;7.20;99.90
15288;DHT22;7745;48.708;9.026;2023-04-08T06:12:00;7.30;99.90
15288;DHT22;7745;48.708;9.026;2023-04-08T06:14:28;7.30;99.90
15288;DHT22;7745;48.708;9.026;2023-04-08T06:16:55;7.60;99.90
15288;DHT22;7745;48.708;9.026;2023-04-08T06:19:22;7.40;99.90
15288;DHT22;7745;48.708;9.026;2023-04-08T06:21:49;7.50;99.90
15288;DHT22;7745;48.708;9.026;2023-04-08T06:24:16;7.50;99.90
15288;DHT22;7745;48.708;9.026;2023-04-08T06:26:43;7.50;99.90
15288;DHT22;7745;48.708;9.026;2023-04-08T06:29:10;7.50;99.90
15288;DHT22;7745;48.708;9.026;2023-04-08T06:31:39;7.50;99.90
15288;DHT22;7745;48.708;9.026;2023-04-08T06:34:06;7.50;99.90
15288;DHT22;7745;48.708;9.026;2023-04-08T06:36:33;7.80;99.90
15288;DHT22;7745;48.708;9.026;2023-04-08T06:38:59;7.50;99.90
15288;DHT22;7745;48.708;9.026;2023-04-08T06:41:26;8.10;99.90
15288;DHT22;7745;48.708;9.026;2023-04-08T06:43:53;7.50;99.90
15288;DHT22;7745;48.708;9.026;2023-04-08T06:46:20;7.50;99.90
15288;DHT22;7745;48.708;9.026;2023-04-08T06:48:48;7.50;99.90
15288;DHT22;7745;48.708;9.026;2023-04-08T06:51:14;7.50;99.90
15288;DHT22;7745;48.708;9.026;2023-04-08T06:53:41;7.60;99.90
15288;DHT22;7745;48.708;9.026;2023-04-08T06:56:08;7.60;99.90
15288;DHT22;7745;48.708;9.026;2023-04-08T06:58:35;7.90;99.90
15288;DHT22;7745;48.708;9.026;2023-04-08T07:01:02;7.50;99.90
15288;DHT22;7745;48.708;9.026;2023-04-08T07:03:29;7.50;99.90
15288;DHT22;7745;48.708;9.026;2023-04-08T07:05:57;7.50;99.90
15288;DHT22;7745;48.708;9.026;2023-04-08T07:08:24;7.60;99.90
15288;DHT22;7745;48.708;9.026;2023-04-08T07:10:51;7.60;99.90
15288;DHT22;7745;48.708;9.026;2023-04-08T07:13:18;7.60;99.90
15288;DHT22;7745;48.708;9.026;2023-04-08T07:15:45;7.70;99.90
15288;DHT22;7745;48.708;9.026;2023-04-08T07:18:11;7.70;99.90
15288;DHT22;7745;48.708;9.026;2023-04-08T07:20:39;7.70;99.90
15288;DHT22;7745;48.708;9.026;2023-04-08T07:23:07;7.70;99.90
15288;DHT22;7745;48.708;9.026;2023-04-08T07:25:34;7.60;99.90
15288;DHT22;7745;48.708;9.026;2023-04-08T07:28:01;7.60;99.90
15288;DHT22;7745;48.708;9.026;2023-04-08T07:30:28;7.60;99.90
15288;DHT22;7745;48.708;9.026;2023-04-08T07:32:55;7.60;99.90
15288;DHT22;7745;48.708;9.026;2023-04-08T07:35:22;7.90;99.90
15288;DHT22;7745;48.708;9.026;2023-04-08T07:37:50;7.80;99.90
15288;DHT22;7745;48.708;9.026;2023-04-08T07:40:19;7.70;99.90
15288;DHT22;7745;48.708;9.026;2023-04-08T07:42:46;7.80;99.90
15288;DHT22;7745;48.708;9.026;2023-04-08T07:45:12;7.90;99.90
15288;DHT22;7745;48.708;9.026;2023-04-08T07:47:39;7.90;99.90
15288;DHT22;7745;48.708;9.026;2023-04-08T07:50:07;7.90;99.90
15288;DHT22;7745;48.708;9.026;2023-04-08T07:52:34;8.00;99.90
15288;DHT22;7745;48.708;9.026;2023-04-08T07:55:01;8.00;99.90
15288;DHT22;7745;48.708;9.026;2023-04-08T07:57:29;8.10;99.90
15288;DHT22;7745;48.708;9.026;2023-04-08T07:59:56;8.20;99.90
15288;DHT22;7745;48.708;9.026;2023-04-08T08:02:22;8.20;99.90
15288;DHT22;7745;48.708;9.026;2023-04-08T08:04:49;8.30;99.90
15288;DHT22;7745;48.708;9.026;2023-04-08T08:07:16;8.40;99.90
15288;DHT22;7745;48.708;9.026;2023-04-08T08:09:43;8.50;99.90
15288;DHT22;7745;48.708;9.026;2023-04-08T08:12:10;8.50;99.90
15288;DHT22;7745;48.708;9.026;2023-04-08T08:14:38;8.50;99.90
15288;DHT22;7745;48.708;9.026;2023-04-08T08:17:05;8.60;99.90
15288;DHT22;7745;48.708;9.026;2023-04-08T08:19:32;8.60;99.90
15288;DHT22;7745;48.708;9.026;2023-04-08T08:21:59;8.70;99.90
15288;DHT22;7745;48.708;9.026;2023-04-08T08:24:25;8.70;99.90
15288;DHT22;7745;48.708;9.026;2023-04-08T08:26:52;8.70;99.90
15288;DHT22;7745;48.708;9.026;2023-04-08T08:29:19;8.90;99.90
15288;DHT22;7745;48.708;9.026;2023-04-08T08:31:47;9.10;99.90
15288;DHT22;7745;48.708;9.026;2023-04-08T08:34:14;9.20;99.90
15288;DHT22;7745;48.708;9.026;2023-04-08T08:36:41;9.50;99.90
15288;DHT22;7745;48.708;9.026;2023-04-08T08:39:07;9.40;99.90
15288;DHT22;7745;48.708;9.026;2023-04-08T08:41:34;9.50;99.90
15288;DHT22;7745;48.708;9.026;2023-04-08T08:44:04;9.40;99.90
15288;DHT22;7745;48.708;9.026;2023-04-08T08:46:32;9.40;99.90
15288;DHT22;7745;48.708;9.026;2023-04-08T08:49:01;9.50;99.90
15288;DHT22;7745;48.708;9.026;2023-04-08T08:51:29;9.50;99.90
15288;DHT22;7745;48.708;9.026;2023-04-08T08:53:59;9.50;99.90
15288;DHT22;7745;48.708;9.026;2023-04-08T08:56:27;9.70;99.90
15288;DHT22;7745;48.708;9.026;2023-04-08T08:58:54;9.70;99.90
15288;DHT22;7745;48.708;9.026;2023-04-08T09:01:31;10.10;99.90
15288;DHT22;7745;48.708;9.026;2023-04-08T09:04:09;9.80;99.90
15288;DHT22;7745;48.708;9.026;2023-04-08T09:06:36;9.80;99.90
15288;DHT22;7745;48.708;9.026;2023-04-08T09:09:03;9.90;99.90
15288;DHT22;7745;48.708;9.026;2023-04-08T09:11:38;9.80;99.90
15288;DHT22;7745;48.708;9.026;2023-04-08T09:22:06;9.80;99.90
15288;DHT22;7745;48.708;9.026;2023-04-08T09:24:35;10.00;99.90
15288;DHT22;7745;48.708;9.026;2023-04-08T09:27:06;10.10;99.90
15288;DHT22;7745;48.708;9.026;2023-04-08T09:29:33;10.20;99.90
15288;DHT22;7745;48.708;9.026;2023-04-08T09:32:01;10.30;99.90
15288;DHT22;7745;48.708;9.026;2023-04-08T09:34:29;10.50;99.90
15288;DHT22;7745;48.708;9.026;2023-04-08T09:36:58;10.50;99.90
15288;DHT22;7745;48.708;9.026;2023-04-08T09:39:26;10.60;99.90
15288;DHT22;7745;48.708;9.026;2023-04-08T09:41:56;10.50;99.90
15288;DHT22;7745;48.708;9.026;2023-04-08T09:44:27;10.80;99.90
15288;DHT22;7745;48.708;9.026;2023-04-08T09:47:00;10.60;99.90
15288;DHT22;7745;48.708;9.026;2023-04-08T09:49:45;10.50;99.90
15288;DHT22;7745;48.708;9.026;2023-04-08T09:52:28;10.40;99.90
15288;DHT22;7745;48.708;9.026;2023-04-08T09:55:03;10.30;99.90
15288;DHT22;7745;48.708;9.026;2023-04-08T09:57:41;10.20;99.90
15288;DHT22;7745;48.708;9.026;2023-04-08T10:00:23;10.30;99.90
15288;DHT22;7745;48.708;9.026;2023-04-08T10:06:03;10.70;99.90
15288;DHT22;7745;48.708;9.026;2023-04-08T10:08:36;10.40;99.90
15288;DHT22;7745;48.708;9.026;2023-04-08T10:11:13;10.60;99.90
15288;DHT22;7745;48.708;9.026;2023-04-08T10:13:45;10.90;99.90
15288;DHT22;7745;48.708;9.026;2023-04-08T10:16:23;10.80;99.90
15288;DHT22;7745;48.708;9.026;2023-04-08T10:18:52;10.90;99.90
15288;DHT22;7745;48.708;9.026;2023-04-08T10:21:37;10.90;99.90
15288;DHT22;7745;48.708;9.026;2023-04-08T10:24:27;11.00;99.90
15288;DHT22;7745;48.708;9.026;2023-04-08T10:27:45;11.30;99.90
15288;DHT22;7745;48.708;9.026;2023-04-08T10:30:41;11.30;99.90
15288;DHT22;7745;48.708;9.026;2023-04-08T10:33:10;11.20;99.90
15288;DHT22;7745;48.708;9.026;2023-04-08T10:35:40;11.40;99.90
15288;DHT22;7745;48.708;9.026;2023-04-08T10:38:07;11.30;99.90
15288;DHT22;7745;48.708;9.026;2023-04-08T10:40:36;11.40;99.90
15288;DHT22;7745;48.708;9.026;2023-04-08T10:43:07;11.60;99.90
15288;DHT22;7745;48.708;9.026;2023-04-08T10:45:34;11.60;99.90
15288;DHT22;7745;48.708;9.026;2023-04-08T10:48:14;11.80;99.90
15288;DHT22;7745;48.708;9.026;2023-04-08T10:50:42;11.80;99.90
15288;DHT22;7745;48.708;9.026;2023-04-08T10:53:09;11.70;99.90
15288;DHT22;7745;48.708;9.026;2023-04-08T10:55:36;11.50;99.90
15288;DHT22;7745;48.708;9.026;2023-04-08T10:58:09;11.30;99.90
15288;DHT22;7745;48.708;9.026;2023-04-08T11:00:38;11.10;99.90
15288;DHT22;7745;48.708;9.026;2023-04-08T11:03:07;11.00;99.90
15288;DHT22;7745;48.708;9.026;2023-04-08T11:05:35;10.90;99.90
15288;DHT22;7745;48.708;9.026;2023-04-08T11:08:02;10.90;99.90
15288;DHT22;7745;48.708;9.026;2023-04-08T11:10:29;10.80;99.90
15288;DHT22;7745;48.708;9.026;2023-04-08T11:12:57;10.70;99.90
15288;DHT22;7745;48.708;9.026;2023-04-08T11:15:25;10.60;99.90
15288;DHT22;7745;48.708;9.026;2023-04-08T11:17:55;10.50;99.90
15288;DHT22;7745;48.708;9.026;2023-04-08T11:20:24;10.40;99.90
15288;DHT22;7745;48.708;9.026;2023-04-08T11:22:51;10.30;99.90
15288;DHT22;7745;48.708;9.026;2023-04-08T11:25:17;10.30;99.90
15288;DHT22;7745;48.708;9.026;2023-04-08T11:27:45;10.30;99.90
15288;DHT22;7745;48.708;9.026;2023-04-08T11:30:12;10.40;99.90
15288;DHT22;7745;48.708;9.026;2023-04-08T11:32:40;10.40;99.90
15288;DHT22;7745;48.708;9.026;2023-04-08T11:35:08;10.40;99.90
15288;DHT22;7745;48.708;9.026;2023-04-08T11:37:38;10.30;99.90
15288;DHT22;7745;48.708;9.026;2023-04-08T11:40:09;10.30;99.90
15288;DHT22;7745;48.708;9.026;2023-04-08T11:42:37;10.20;99.90
15288;DHT22;7745;48.708;9.026;2023-04-08T11:45:09;10.30;99.90
15288;DHT22;7745;48.708;9.026;2023-04-08T11:47:37;10.30;99.90
15288;DHT22;7745;48.708;9.026;2023-04-08T11:50:07;10.30;99.90
15288;DHT22;7745;48.708;9.026;2023-04-08T11:52:45;10.30;99.90
15288;DHT22;7745;48.708;9.026;2023-04-08T11:55:20;10.40;99.90
15288;DHT22;7745;48.708;9.026;2023-04-08T11:57:48;10.30;99.90
15288;DHT22;7745;48.708;9.026;2023-04-08T12:00:15;10.30;99.90
15288;DHT22;7745;48.708;9.026;2023-04-08T12:02:42;10.30;99.90
15288;DHT22;7745;48.708;9.026;2023-04-08T12:05:10;10.30;99.90
15288;DHT22;7745;48.708;9.026;2023-04-08T12:07:37;10.60;99.90
15288;DHT22;7745;48.708;9.026;2023-04-08T12:10:16;10.40;99.90
15288;DHT22;7745;48.708;9.026;2023-04-08T12:12:42;10.40;99.90
15288;DHT22;7745;48.708;9.026;2023-04-08T12:15:09;10.40;99.90
15288;DHT22;7745;48.708;9.026;2023-04-08T12:17:36;10.30;99.90
15288;DHT22;7745;48.708;9.026;2023-04-08T12:20:13;10.30;99.90
15288;DHT22;7745;48.708;9.026;2023-04-08T12:22:41;10.30;99.90
15288;DHT22;7745;48.708;9.026;2023-04-08T12:25:08;10.40;99.90
15288;DHT22;7745;48.708;9.026;2023-04-08T12:27:35;10.40;99.90
15288;DHT22;7745;48.708;9.026;2023-04-08T12:30:02;10.40;99.90
15288;DHT22;7745;48.708;9.026;2023-04-08T12:32:29;10.50;99.90
15288;DHT22;7745;48.708;9.026;2023-04-08T12:34:56;10.50;99.90
15288;DHT22;7745;48.708;9.026;2023-04-08T12:37:24;10.60;99.90
15288;DHT22;7745;48.708;9.026;2023-04-08T12:39:51;10.60;99.90
15288;DHT22;7745;48.708;9.026;2023-04-08T12:42:18;10.50;99.90
15288;DHT22;7745;48.708;9.026;2023-04-08T12:44:45;10.50;99.90
15288;DHT22;7745;48.708;9.026;2023-04-08T12:47:11;10.20;99.90
15288;DHT22;7745;48.708;9.026;2023-04-08T12:49:38;10.00;99.90
15288;DHT22;7745;48.708;9.026;2023-04-08T12:52:05;10.00;99.90
15288;DHT22;7745;48.708;9.026;2023-04-08T12:54:34;10.00;99.90
15288;DHT22;7745;48.708;9.026;2023-04-08T12:57:01;9.80;99.90
15288;DHT22;7745;48.708;9.026;2023-04-08T12:59:27;9.80;99.90
15288;DHT22;7745;48.708;9.026;2023-04-08T13:01:54;9.80;99.90
15288;DHT22;7745;48.708;9.026;2023-04-08T13:04:21;10.00;99.90
15288;DHT22;7745;48.708;9.026;2023-04-08T13:06:47;9.70;99.90
15288;DHT22;7745;48.708;9.026;2023-04-08T13:09:14;9.70;99.90
15288;DHT22;7745;48.708;9.026;2023-04-08T13:11:42;9.80;99.90
15288;DHT22;7745;48.708;9.026;2023-04-08T13:14:09;9.80;99.90
15288;DHT22;7745;48.708;9.026;2023-04-08T13:16:38;9.80;99.90
15288;DHT22;7745;48.708;9.026;2023-04-08T13:19:04;9.80;99.90
15288;DHT22;7745;48.708;9.026;2023-04-08T13:21:31;9.90;99.90
15288;DHT22;7745;48.708;9.026;2023-04-08T13:23:58;10.20;99.90
15288;DHT22;7745;48.708;9.026;2023-04-08T13:26:25;10.20;99.90
15288;DHT22;7745;48.708;9.026;2023-04-08T13:28:53;10.10;99.90
15288;DHT22;7745;48.708;9.026;2023-04-08T13:31:20;10.10;99.90
15288;DHT22;7745;48.708;9.026;2023-04-08T13:33:46;10.10;99.90
15288;DHT22;7745;48.708;9.026;2023-04-08T13:36:13;10.30;99.90
15288;DHT22;7745;48.708;9.026;2023-04-08T13:38:40;10.30;99.90
15288;DHT22;7745;48.708;9.026;2023-04-08T13:41:08;10.20;99.90
15288;DHT22;7745;48.708;9.026;2023-04-08T13:43:34;10.20;99.90
15288;DHT22;7745;48.708;9.026;2023-04-08T13:46:03;10.20;99.90
15288;DHT22;7745;48.708;9.026;2023-04-08T13:48:30;10.20;99.90
15288;DHT22;7745;48.708;9.026;2023-04-08T13:50:56;10.20;99.90
15288;DHT22;7745;48.708;9.026;2023-04-08T13:53:23;10.20;99.90
15288;DHT22;7745;48.708;9.026;2023-04-08T13:55:50;10.30;99.90
15288;DHT22;7745;48.708;9.026;2023-04-08T13:58:19;10.10;99.90
15288;DHT22;7745;48.708;9.026;2023-04-08T14:00:46;10.30;99.90
15288;DHT22;7745;48.708;9.026;2023-04-08T14:03:14;10.20;99.90
15288;DHT22;7745;48.708;9.026;2023-04-08T14:05:41;10.30;99.90
15288;DHT22;7745;48.708;9.026;2023-04-08T14:08:09;10.30;99.90
15288;DHT22;7745;48.708;9.026;2023-04-08T14:10:36;10.40;99.90
15288;DHT22;7745;48.708;9.026;2023-04-08T14:13:03;10.50;99.90
15288;DHT22;7745;48.708;9.026;2023-04-08T14:15:30;10.70;99.90
15288;DHT22;7745;48.708;9.026;2023-04-08T14:17:56;10.70;99.90
15288;DHT22;7745;48.708;9.026;2023-04-08T14:20:24;10.90;99.90
15288;DHT22;7745;48.708;9.026;2023-04-08T14:22:51;10.80;99.90
15288;DHT22;7745;48.708;9.026;2023-04-08T14:25:18;10.70;99.90
15288;DHT22;7745;48.708;9.026;2023-04-08T14:27:45;10.80;99.90
15288;DHT22;7745;48.708;9.026;2023-04-08T14:30:12;10.90;99.90
15288;DHT22;7745;48.708;9.026;2023-04-08T14:32:39;10.90;99.90
15288;DHT22;7745;48.708;9.026;2023-04-08T14:35:06;11.00;99.90
15288;DHT22;7745;48.708;9.026;2023-04-08T14:37:34;11.10;99.90
15288;DHT22;7745;48.708;9.026;2023-04-08T14:40:03;11.20;99.90
15288;DHT22;7745;48.708;9.026;2023-04-08T14:42:30;11.20;99.90
15288;DHT22;7745;48.708;9.026;2023-04-08T14:44:56;11.20;99.90
15288;DHT22;7745;48.708;9.026;2023-04-08T14:47:23;11.30;99.90
15288;DHT22;7745;48.708;9.026;2023-04-08T14:49:50;11.30;99.90
15288;DHT22;7745;48.708;9.026;2023-04-08T14:52:17;11.20;99.90
15288;DHT22;7745;48.708;9.026;2023-04-08T14:54:45;11.20;99.90
15288;DHT22;7745;48.708;9.026;2023-04-08T14:57:12;11.30;99.90
15288;DHT22;7745;48.708;9.026;2023-04-08T14:59:40;11.30;99.90
15288;DHT22;7745;48.708;9.026;2023-04-08T15:02:08;11.40;99.90
15288;DHT22;7745;48.708;9.026;2023-04-08T15:04:35;11.40;99.90
15288;DHT22;7745;48.708;9.026;2023-04-08T15:07:02;11.30;99.90
15288;DHT22;7745;48.708;9.026;2023-04-08T15:09:29;11.30;99.90
15288;DHT22;7745;48.708;9.026;2023-04-08T15:11:57;11.30;99.90
15288;DHT22;7745;48.708;9.026;2023-04-08T15:14:24;11.30;99.90
15288;DHT22;7745;48.708;9.026;2023-04-08T15:16:51;11.20;99.90
15288;DHT22;7745;48.708;9.026;2023-04-08T15:19:17;11.00;99.90
15288;DHT22;7745;48.708;9.026;2023-04-08T15:21:44;11.00;99.90
15288;DHT22;7745;48.708;9.026;2023-04-08T15:24:11;10.90;99.90
15288;DHT22;7745;48.708;9.026;2023-04-08T15:26:38;10.90;99.90
15288;DHT22;7745;48.708;9.026;2023-04-08T15:29:06;10.90;99.90
15288;DHT22;7745;48.708;9.026;2023-04-08T15:31:33;10.70;99.90
15288;DHT22;7745;48.708;9.026;2023-04-08T15:34:00;10.70;99.90
15288;DHT22;7745;48.708;9.026;2023-04-08T15:36:28;10.60;99.90
15288;DHT22;7745;48.708;9.026;2023-04-08T15:38:55;10.50;99.90
15288;DHT22;7745;48.708;9.026;2023-04-08T15:41:22;10.50;99.90
15288;DHT22;7745;48.708;9.026;2023-04-08T15:43:49;10.30;99.90
15288;DHT22;7745;48.708;9.026;2023-04-08T15:46:18;10.20;99.90
15288;DHT22;7745;48.708;9.026;2023-04-08T15:48:46;10.30;99.90
15288;DHT22;7745;48.708;9.026;2023-04-08T15:51:12;10.20;99.90
15288;DHT22;7745;48.708;9.026;2023-04-08T15:53:39;10.40;99.90
15288;DHT22;7745;48.708;9.026;2023-04-08T15:56:11;10.30;99.90
15288;DHT22;7745;48.708;9.026;2023-04-08T15:58:39;10.40;99.90
15288;DHT22;7745;48.708;9.026;2023-04-08T16:01:05;10.40;99.90
15288;DHT22;7745;48.708;9.026;2023-04-08T16:03:33;10.50;99.90
15288;DHT22;7745;48.708;9.026;2023-04-08T16:06:00;10.40;99.90
15288;DHT22;7745;48.708;9.026;2023-04-08T16:08:27;10.40;99.90
15288;DHT22;7745;48.708;9.026;2023-04-08T16:10:58;10.30;99.90
15288;DHT22;7745;48.708;9.026;2023-04-08T16:13:26;10.40;99.90